Buchanan, MI (49107)

7:55 AM EST on December 07, 2016 (GMT -0500)
Crescent View Estates | | Change Station
Active Advisory: Winter Storm Watch

Elev 735 ft 41.82 °N, 86.34 °W | Updated 4 seconds ago

Clear
Clear
27.3 °F
Feels Like 27 °F
N
2.7
Wind Variable Wind from WSW

Today
High -- | Low -- °F
--% Chance of Precip.
Yesterday
High -- | Low -- °F
Precip. -- in
Pressure 30.09 in
Visibility 10.0 miles
Clouds Clear
Windchill 27 °F
Dew Point 22 °F
Humidity 82%
Rainfall 0.47 in
Snow Depth Not available.
7:59 AM 5:14 PM
First Quarter, 52% visible
METAR KSBN 071154Z 25012KT 10SM CLR M04/M08 A3005 RMK AO2 SLP187 T10391078 11017 21039 53015
Pressure 30.09 in
Visibility 10.0 miles
Clouds Clear
Windchill 27 °F
Dew Point 22 °F
Humidity 82%
Rainfall 0.47 in
Snow Depth Not available.
7:59 AM 5:14 PM
First Quarter, 52% visible
METAR KSBN 071154Z 25012KT 10SM CLR M04/M08 A3005 RMK AO2 SLP187 T10391078 11017 21039 53015

10-Day Weather Forecast

Almanac

Astronomy

Dec. 07, 2016 Rise Set
Actual Time
Civil Twilight
Nautical Twilight
Astronomical Twilight
Moon
Length of Visible Light
Length of Day
Tomorrow will be .
, % of the Moon is Illuminated

Today's Extremes

State Highs State Lows

Community

WunderPhotos

Upload Photos

1,956,112 photos uploaded!

WunderBlog® & News

Nearby

Air Quality

  Air Quality AQ Index Pollutant
Not available.

Snow Depth

Station Depth Elevation

Earthquake Activity

City Distance Mag. Time & Date
Minimum magnitude displayed is 2.5.

Coastal Water Temperatures

Place Temperature

Stations

Nearby Weather Stations

Station Location Temp. Windchill Dew Point Humidity Wind Precip. Elev Updated Type
                   

Watches & Warnings

Winter Storm Watch
Issued: 2:55 AM EST Dec. 7, 2016 – National Weather Service

... Winter Storm Watch in effect from late tonight through Friday
afternoon...

The National Weather Service in northern Indiana has issued a
Winter Storm Watch for lake effect snow and blowing snow... which
is in effect from late tonight through Friday afternoon.

Hazardous weather...

* lake effect snow showers with blowing and drifting snow.

* Snow accumulations generally 5 to 8 inches by late Friday.

Impacts...

* blowing and drifting snow will cause hazardous driving
   conditions on snow covered and slippery roads especially from
   Thursday afternoon into Friday morning.

* The Thursday evening and Friday morning commutes may be
   difficult.


Precautionary/preparedness actions...

A Winter Storm Watch for lake effect snow means there is a
potential for significant lake effect snow accumulations that may
impact travel. Blowing and drifting snow are also expected. Continue
to monitor the latest forecasts.